Radiance Of The Seas — C6SE7 — position and weather

sailwx.info

Track history (hours):
 
Tides and Currents Weather Stations Pressure Air Temp Water Temp Dewpoint Dewpoint Depression Visibility Wind Speed Wind Dir Waves Ship Positions

Radiance Of The Seas

Operator: Royal Caribbean Cruises Ltd

Last reported at 2015-Sep-03 23:33 UTC. Time now 2015-Sep-04 01:28 UTC.
Position N 50°40' W 126°51'.

Type: Passenger vessel. MMSI: 311319000.

Date/timePositionNaut miles runAvg speedWind from/ knotsBaromVisibWave heightAir tempDewpointWater temp
2015-Sep-03 23:33N 50°40' W 126°51'1616.5
2015-Sep-03 22:33N 50°46' W 127°15'1716.5
2015-Sep-03 21:33N 50°54' W 127°38'1515.1
2015-Sep-03 20:33N 51°02' W 127°58'26116.3
2015-Sep-03 04:33N 54°47' W 131°38'1817.6
2015-Sep-03 03:33N 55°04' W 131°42'1515.0
2015-Sep-03 02:33N 55°19' W 131°36'3 2.6
2015-Sep-03 01:32N 55°21' W 131°39'0 0.0
2015-Sep-03 00:32N 55°21' W 131°39'0 0.0
2015-Sep-02 23:32N 55°21' W 131°39'0 0.0
2015-Sep-02 22:32N 55°21' W 131°39'0 0.0
2015-Sep-02 21:32N 55°21' W 131°39'0 0.0
2015-Sep-02 20:32N 55°21' W 131°39'0 0.0
2015-Sep-02 19:32N 55°21' W 131°39'0 0.0
2015-Sep-02 18:32N 55°21' W 131°39'21 5.2
2015-Sep-02 14:33N 55°32' W 132°09'1817.7
2015-Sep-02 13:33N 55°47' W 132°26'1717.2
2015-Sep-02 12:33N 56°02' W 132°42'1817.0
2015-Sep-02 11:32N 56°17' W 132°58'138 6.3
2015-Sep-01 13:32N 58°09' W 135°25'6 0.1
2015-Aug-30 11:25N 58°15' W 135°31'1416.0
2015-Aug-30 10:33N 58°19' W 135°56'  
2015-Aug-27 06:33N 58°19' W 136°08'2222.0
2015-Aug-27 05:33N 58°15' W 135°27'15 0.3
2015-Aug-25 05:33N 58°18' W 134°60'8 7.0
2015-Aug-25 04:29N 58°11' W 135°00'5 5.9
2015-Aug-25 03:33N 58°09' W 135°10'7 6.7
2015-Aug-25 02:33N 58°09' W 135°23'3 3.2
2015-Aug-25 01:32N 58°08' W 135°28'0 0.0
2015-Aug-25 00:32N 58°08' W 135°28'  
Track history (hours):
 
Tides and Currents Weather Stations Pressure Air Temp Water Temp Dewpoint Dewpoint Depression Visibility Wind Speed Wind Dir Waves Ship Positions

Radiance Of The Seas

Operator: Royal Caribbean Cruises Ltd

Last reported at 2015-Sep-03 23:33 UTC. Time now 2015-Sep-04 01:28 UTC.
Position N 50°40' W 126°51'.

Type: Passenger vessel. MMSI: 311319000.

Date/timePositionNaut miles runAvg speedWind from/ knotsBaromVisibWave heightAir tempDewpointWater temp
2015-Sep-03 23:33N 50°40' W 126°51'1616.5
2015-Sep-03 22:33N 50°46' W 127°15'1716.5
2015-Sep-03 21:33N 50°54' W 127°38'1515.1
2015-Sep-03 20:33N 51°02' W 127°58'26116.3
2015-Sep-03 04:33N 54°47' W 131°38'1817.6
2015-Sep-03 03:33N 55°04' W 131°42'1515.0
2015-Sep-03 02:33N 55°19' W 131°36'3 2.6
2015-Sep-03 01:32N 55°21' W 131°39'0 0.0
2015-Sep-03 00:32N 55°21' W 131°39'0 0.0
2015-Sep-02 23:32N 55°21' W 131°39'0 0.0
2015-Sep-02 22:32N 55°21' W 131°39'0 0.0
2015-Sep-02 21:32N 55°21' W 131°39'0 0.0
2015-Sep-02 20:32N 55°21' W 131°39'0 0.0
2015-Sep-02 19:32N 55°21' W 131°39'0 0.0
2015-Sep-02 18:32N 55°21' W 131°39'21 5.2
2015-Sep-02 14:33N 55°32' W 132°09'1817.7
2015-Sep-02 13:33N 55°47' W 132°26'1717.2
2015-Sep-02 12:33N 56°02' W 132°42'1817.0
2015-Sep-02 11:32N 56°17' W 132°58'138 6.3
2015-Sep-01 13:32N 58°09' W 135°25'6 0.1
2015-Aug-30 11:25N 58°15' W 135°31'1416.0
2015-Aug-30 10:33N 58°19' W 135°56'  
2015-Aug-27 06:33N 58°19' W 136°08'2222.0
2015-Aug-27 05:33N 58°15' W 135°27'15 0.3
2015-Aug-25 05:33N 58°18' W 134°60'8 7.0
2015-Aug-25 04:29N 58°11' W 135°00'5 5.9
2015-Aug-25 03:33N 58°09' W 135°10'7 6.7
2015-Aug-25 02:33N 58°09' W 135°23'3 3.2
2015-Aug-25 01:32N 58°08' W 135°28'0 0.0
2015-Aug-25 00:32N 58°08' W 135°28'  

Dump ship's entire track history